Time;durP1;ratioP1;P1;durP2;ratioP2;P2;SDS_P1;SDS_P2;PMS_P1;PMS_P2;Temp;Humidity;BMP_temperature;BMP_pressure;BME280_temperature;BME280_humidity;BME280_pressure;Samples;Min_cycle;Max_cycle;Signal;HPM_P1;HPM_P2
2022/08/29 00:00:20;;;;;;;5.65;2.28;;;;;;;;;;5013466;28;88884;-70
2022/08/29 00:02:51;;;;;;;9.07;2.20;;;;;;;;;;5010049;28;89659;-70
2022/08/29 00:05:19;;;;;;;9.15;2.45;;;;;;;;;;5012157;28;89764;-70
2022/08/29 00:07:50;;;;;;;19.60;2.30;;;;;;;;;;5011271;28;89018;-70
2022/08/29 00:10:16;;;;;;;8.88;2.45;;;;;;;;;;5017098;28;89488;-70
2022/08/29 00:12:42;;;;;;;3.88;2.22;;;;;;;;;;5024899;27;89434;-70
2022/08/29 00:15:10;;;;;;;6.72;2.20;;;;;;;;;;5012813;28;90163;-70
2022/08/29 00:17:36;;;;;;;8.75;2.35;;;;;;;;;;5013764;28;89991;-70
2022/08/29 00:20:04;;;;;;;4.53;2.30;;;;;;;;;;5013095;28;89268;-70
2022/08/29 00:22:30;;;;;;;6.70;2.40;;;;;;;;;;5012759;28;89728;-70
2022/08/29 00:25:01;;;;;;;5.50;2.30;;;;;;;;;;5011418;28;89801;-70
2022/08/29 00:27:27;;;;;;;7.55;2.10;;;;;;;;;;5013667;28;88357;-70
2022/08/29 00:29:54;;;;;;;5.53;2.40;;;;;;;;;;5010732;28;89546;-70
2022/08/29 00:32:20;;;;;;;7.35;2.40;;;;;;;;;;5015482;28;89100;-70
2022/08/29 00:34:46;;;;;;;4.32;2.20;;;;;;;;;;5011766;27;89207;-70
2022/08/29 00:37:13;;;;;;;6.07;1.98;;;;;;;;;;5011902;28;90289;-70
2022/08/29 00:39:41;;;;;;;4.82;2.25;;;;;;;;;;5012534;28;89167;-70
2022/08/29 00:42:08;;;;;;;4.50;1.85;;;;;;;;;;5032953;27;90710;-70
2022/08/29 00:44:34;;;;;;;3.55;1.88;;;;;;;;;;5026356;27;90074;-70
2022/08/29 00:47:06;;;;;;;3.88;1.88;;;;;;;;;;5012701;28;89295;-70
2022/08/29 00:49:38;;;;;;;6.00;2.20;;;;;;;;;;5013383;28;89616;-70
2022/08/29 00:52:07;;;;;;;9.43;2.25;;;;;;;;;;5016163;28;88893;-70
2022/08/29 00:54:33;;;;;;;4.35;2.28;;;;;;;;;;5029392;27;89083;-70
2022/08/29 00:57:00;;;;;;;6.38;2.13;;;;;;;;;;5012857;28;89388;-70
2022/08/29 00:59:30;;;;;;;5.82;2.10;;;;;;;;;;5010733;28;89026;-70
2022/08/29 01:01:57;;;;;;;7.07;2.22;;;;;;;;;;5011815;28;89741;-70
2022/08/29 01:04:24;;;;;;;4.10;1.92;;;;;;;;;;5012143;28;90872;-71
2022/08/29 01:06:50;;;;;;;2.75;1.95;;;;;;;;;;5010156;28;89027;-71
2022/08/29 01:09:16;;;;;;;3.97;2.10;;;;;;;;;;5013585;28;89944;-71
2022/08/29 01:14:27;;;;;;;5.35;2.20;;;;;;;;;;5014731;28;89473;-70
2022/08/29 01:16:56;;;;;;;3.97;1.92;;;;;;;;;;5012495;28;90056;-70
2022/08/29 01:19:27;;;;;;;3.83;2.05;;;;;;;;;;5010945;28;91658;-71
2022/08/29 01:21:56;;;;;;;15.77;2.80;;;;;;;;;;5012638;28;89748;-70
2022/08/29 01:24:30;;;;;;;5.30;2.40;;;;;;;;;;5009903;28;89960;-71
2022/08/29 01:26:57;;;;;;;5.70;2.40;;;;;;;;;;5011043;28;88668;-71
2022/08/29 01:29:23;;;;;;;7.63;2.65;;;;;;;;;;5012106;28;89109;-71
2022/08/29 01:31:50;;;;;;;4.75;1.80;;;;;;;;;;5012080;28;89840;-71
2022/08/29 01:34:24;;;;;;;5.35;2.10;;;;;;;;;;5010140;28;88995;-71
2022/08/29 01:36:52;;;;;;;4.35;2.17;;;;;;;;;;5014996;28;90233;-71
2022/08/29 01:39:20;;;;;;;4.80;2.05;;;;;;;;;;5012670;28;89132;-71
2022/08/29 01:41:47;;;;;;;3.47;1.73;;;;;;;;;;5027164;28;89724;-70
2022/08/29 01:44:18;;;;;;;4.10;1.90;;;;;;;;;;5017529;27;88700;-70
2022/08/29 01:46:47;;;;;;;3.72;1.70;;;;;;;;;;5013011;28;87964;-70
2022/08/29 01:49:14;;;;;;;5.40;2.10;;;;;;;;;;5010915;28;90425;-71
2022/08/29 01:51:41;;;;;;;6.85;2.20;;;;;;;;;;5012493;28;89947;-70
2022/08/29 01:54:08;;;;;;;3.88;2.05;;;;;;;;;;5009063;28;88989;-70
2022/08/29 01:56:36;;;;;;;6.60;2.30;;;;;;;;;;5011401;28;90489;-70
2022/08/29 01:59:04;;;;;;;6.65;2.00;;;;;;;;;;5013761;28;89826;-70
2022/08/29 02:01:36;;;;;;;8.57;2.15;;;;;;;;;;5010631;28;89700;-70
2022/08/29 02:04:02;;;;;;;;;;;;;;;;;;5009222;28;89872;-70
2022/08/29 02:06:29;;;;;;;6.40;2.33;;;;;;;;;;5019557;28;118206;-70
2022/08/29 02:08:55;;;;;;;5.72;2.47;;;;;;;;;;5031748;27;88980;-70
2022/08/29 02:11:22;;;;;;;6.03;2.50;;;;;;;;;;5031724;28;89067;-70
2022/08/29 02:13:56;;;;;;;6.03;2.17;;;;;;;;;;5020287;27;89393;-70
2022/08/29 02:16:24;;;;;;;5.82;2.03;;;;;;;;;;5009878;28;89796;-70
2022/08/29 02:18:51;;;;;;;5.15;1.80;;;;;;;;;;5010003;28;90848;-70
2022/08/29 02:21:18;;;;;;;5.03;2.20;;;;;;;;;;5013976;28;88902;-70
2022/08/29 02:23:48;;;;;;;4.32;1.80;;;;;;;;;;5009588;28;90370;-70
2022/08/29 02:26:19;;;;;;;11.32;2.00;;;;;;;;;;5011000;28;89366;-70
2022/08/29 02:28:45;;;;;;;3.40;1.85;;;;;;;;;;5010619;28;90080;-70
2022/08/29 02:31:12;;;;;;;3.28;1.95;;;;;;;;;;5010874;28;90141;-70
2022/08/29 02:33:38;;;;;;;3.20;1.73;;;;;;;;;;5011171;28;89201;-70
2022/08/29 02:36:05;;;;;;;5.63;1.90;;;;;;;;;;5011748;28;89791;-70
2022/08/29 02:38:33;;;;;;;3.13;1.73;;;;;;;;;;5011247;28;90020;-70
2022/08/29 02:40:59;;;;;;;3.35;1.92;;;;;;;;;;5010793;28;89196;-70
2022/08/29 02:43:26;;;;;;;3.80;1.95;;;;;;;;;;5012351;28;90620;-70
2022/08/29 02:45:53;;;;;;;3.83;2.00;;;;;;;;;;5010189;28;88871;-70
2022/08/29 02:48:20;;;;;;;3.97;2.00;;;;;;;;;;5010173;28;89748;-73
2022/08/29 02:50:47;;;;;;;5.25;2.10;;;;;;;;;;5010948;28;89855;-70
2022/08/29 02:53:15;;;;;;;4.95;1.98;;;;;;;;;;5009803;28;88281;-70
2022/08/29 02:55:41;;;;;;;9.77;1.80;;;;;;;;;;5009081;28;88533;-70
2022/08/29 02:58:07;;;;;;;3.13;1.75;;;;;;;;;;5010662;28;89874;-70
2022/08/29 03:00:34;;;;;;;6.72;2.25;;;;;;;;;;5013637;28;89011;-70
2022/08/29 03:03:01;;;;;;;5.00;2.40;;;;;;;;;;5023370;28;89454;-70
2022/08/29 03:05:28;;;;;;;5.13;2.60;;;;;;;;;;5014240;28;90033;-70
2022/08/29 03:07:56;;;;;;;4.53;2.33;;;;;;;;;;5011974;28;89914;-70
2022/08/29 03:10:22;;;;;;;3.50;1.98;;;;;;;;;;5028913;28;90001;-70
2022/08/29 03:12:49;;;;;;;4.15;2.15;;;;;;;;;;5014714;28;89425;-70
2022/08/29 03:15:15;;;;;;;5.30;2.25;;;;;;;;;;5014701;28;89519;-70
2022/08/29 03:17:42;;;;;;;3.72;2.13;;;;;;;;;;5015041;28;90029;-70
2022/08/29 03:20:08;;;;;;;7.47;2.03;;;;;;;;;;5014350;28;88682;-70
2022/08/29 03:22:35;;;;;;;6.85;2.00;;;;;;;;;;5012869;28;89714;-70
2022/08/29 03:25:03;;;;;;;4.50;2.10;;;;;;;;;;5016595;28;89158;-71
2022/08/29 03:27:30;;;;;;;4.78;2.30;;;;;;;;;;5014482;28;89644;-70
2022/08/29 03:29:56;;;;;;;8.88;2.10;;;;;;;;;;5012595;28;89871;-70
2022/08/29 03:32:23;;;;;;;5.43;2.03;;;;;;;;;;5029232;28;89759;-70
2022/08/29 03:34:49;;;;;;;6.72;1.98;;;;;;;;;;5034278;27;90331;-70
2022/08/29 03:37:15;;;;;;;8.20;2.10;;;;;;;;;;5019036;27;88885;-70
2022/08/29 03:39:41;;;;;;;5.82;2.00;;;;;;;;;;5013950;28;88836;-70
2022/08/29 03:42:08;;;;;;;4.05;2.15;;;;;;;;;;5014617;28;89436;-71
2022/08/29 03:44:36;;;;;;;5.00;1.98;;;;;;;;;;5013713;28;90067;-70
2022/08/29 03:47:02;;;;;;;4.13;1.98;;;;;;;;;;5018565;28;89172;-70
2022/08/29 03:49:28;;;;;;;5.07;2.22;;;;;;;;;;5034840;27;88992;-71
2022/08/29 03:51:55;;;;;;;8.40;2.53;;;;;;;;;;5033318;27;88353;-70
2022/08/29 03:54:21;;;;;;;4.82;2.15;;;;;;;;;;5025014;27;90018;-70
2022/08/29 03:56:47;;;;;;;5.18;1.90;;;;;;;;;;5011758;28;90489;-71
2022/08/29 03:59:15;;;;;;;6.47;2.30;;;;;;;;;;5014304;28;89236;-70
2022/08/29 04:01:41;;;;;;;6.95;2.40;;;;;;;;;;5027382;28;89885;-70
2022/08/29 04:05:05;;;;;;;9.68;2.90;;;;;;;;;;5033672;27;90349;-70
2022/08/29 04:06:54;;;;;;;4.43;2.40;;;;;;;;;;5022918;27;89435;-70
2022/08/29 04:09:20;;;;;;;4.78;2.53;;;;;;;;;;5014290;28;89715;-70
2022/08/29 04:11:47;;;;;;;5.53;2.30;;;;;;;;;;5012697;28;89141;-70
2022/08/29 04:14:13;;;;;;;4.90;2.25;;;;;;;;;;5013939;28;89801;-70
2022/08/29 04:16:39;;;;;;;7.57;2.30;;;;;;;;;;5011834;28;89796;-69
2022/08/29 04:19:05;;;;;;;6.55;2.72;;;;;;;;;;4993300;28;89038;-69
2022/08/29 04:21:34;;;;;;;6.20;2.10;;;;;;;;;;4992887;28;89819;-69
2022/08/29 04:24:00;;;;;;;3.78;2.10;;;;;;;;;;4993427;28;90064;-70
2022/08/29 04:26:26;;;;;;;5.55;2.00;;;;;;;;;;4999643;28;88870;-70
2022/08/29 04:29:09;;;;;;;3.70;2.10;;;;;;;;;;5011905;28;90080;-70
2022/08/29 04:31:36;;;;;;;4.97;2.38;;;;;;;;;;5027477;28;89832;-69
2022/08/29 04:34:03;;;;;;;4.07;2.30;;;;;;;;;;5033220;27;88761;-71
2022/08/29 04:36:29;;;;;;;8.07;2.20;;;;;;;;;;5019487;27;90080;-72
2022/08/29 04:38:56;;;;;;;7.22;2.65;;;;;;;;;;5011575;28;89167;-69
2022/08/29 04:41:23;;;;;;;6.60;2.40;;;;;;;;;;5013219;28;89506;-70
2022/08/29 04:43:49;;;;;;;7.15;2.40;;;;;;;;;;5012857;28;89904;-70
2022/08/29 04:46:16;;;;;;;6.80;2.92;;;;;;;;;;5012689;28;89772;-70
2022/08/29 04:48:50;;;;;;;17.08;2.60;;;;;;;;;;5012851;28;90436;-70
2022/08/29 04:51:16;;;;;;;13.30;2.70;;;;;;;;;;5011480;28;90052;-70
2022/08/29 04:53:42;;;;;;;5.05;2.28;;;;;;;;;;5015804;28;89410;-70
2022/08/29 04:56:10;;;;;;;11.68;2.47;;;;;;;;;;5012803;28;89129;-70
2022/08/29 04:58:37;;;;;;;4.68;2.25;;;;;;;;;;5012824;28;88891;-70
2022/08/29 05:01:04;;;;;;;5.55;2.58;;;;;;;;;;5021076;28;89740;-70
2022/08/29 05:03:31;;;;;;;6.43;2.53;;;;;;;;;;5033554;27;89339;-70
2022/08/29 05:06:05;;;;;;;7.80;3.05;;;;;;;;;;5032125;27;88682;-70
2022/08/29 05:08:33;;;;;;;7.22;2.70;;;;;;;;;;5019376;27;89613;-71
2022/08/29 19:37:42;;;;;;;14.57;3.53;;;;;;;;;;5047202;27;87559;-72
2022/08/29 19:40:10;;;;;;;11.38;3.75;;;;;;;;;;5047568;27;87229;-70
2022/08/29 19:42:37;;;;;;;10.02;3.42;;;;;;;;;;5044501;27;88471;-70
2022/08/29 19:45:04;;;;;;;14.07;3.97;;;;;;;;;;5036271;27;88437;-70
2022/08/29 19:47:30;;;;;;;13.05;3.55;;;;;;;;;;5051046;27;89074;-70
2022/08/29 19:49:56;;;;;;;8.73;3.58;;;;;;;;;;5047037;27;87552;-70
2022/08/29 19:52:23;;;;;;;8.70;3.08;;;;;;;;;;5029905;27;88360;-70
2022/08/29 19:54:49;;;;;;;10.02;3.78;;;;;;;;;;5032837;27;89182;-70
2022/08/29 19:57:16;;;;;;;16.60;4.22;;;;;;;;;;5051865;27;88144;-70
2022/08/29 19:59:43;;;;;;;13.25;3.33;;;;;;;;;;5049301;27;89281;-71
2022/08/29 20:02:10;;;;;;;12.20;3.65;;;;;;;;;;5032642;27;89062;-70
2022/08/29 20:04:37;;;;;;;11.85;3.05;;;;;;;;;;5037677;27;88108;-70
2022/08/29 20:07:04;;;;;;;12.90;3.72;;;;;;;;;;5042037;27;89129;-70
2022/08/29 20:09:30;;;;;;;8.98;3.42;;;;;;;;;;5047883;27;88988;-70
2022/08/29 20:11:57;;;;;;;12.10;3.63;;;;;;;;;;5044453;27;88478;-71
2022/08/29 20:14:23;;;;;;;14.65;3.40;;;;;;;;;;5031505;27;88868;-71
2022/08/29 20:16:50;;;;;;;11.10;3.70;;;;;;;;;;5048057;27;88740;-70
2022/08/29 20:19:17;;;;;;;14.65;3.78;;;;;;;;;;5033117;27;88209;-70
2022/08/29 20:21:44;;;;;;;12.18;3.97;;;;;;;;;;5034462;27;88736;-71
2022/08/29 20:24:12;;;;;;;9.20;3.20;;;;;;;;;;5029176;27;89113;-71
2022/08/29 20:26:42;;;;;;;19.48;4.05;;;;;;;;;;5028675;27;88899;-70
2022/08/29 20:29:09;;;;;;;10.27;3.50;;;;;;;;;;5027545;27;87582;-70
2022/08/29 20:31:36;;;;;;;11.55;3.83;;;;;;;;;;5045343;27;88742;-71
2022/08/29 20:34:02;;;;;;;14.85;5.38;;;;;;;;;;5045219;27;88973;-70
2022/08/29 20:39:15;;;;;;;10.13;3.40;;;;;;;;;;5028868;27;88301;-70
2022/08/29 20:41:46;;;;;;;7.38;3.33;;;;;;;;;;5042365;27;89760;-71
2022/08/29 20:44:16;;;;;;;9.55;3.75;;;;;;;;;;5034004;27;88474;-70
2022/08/29 20:46:43;;;;;;;10.85;3.50;;;;;;;;;;5040397;27;88319;-70
2022/08/29 20:49:12;;;;;;;14.80;3.50;;;;;;;;;;5020111;27;91422;-70
2022/08/29 20:51:42;;;;;;;9.93;3.72;;;;;;;;;;5022079;27;88380;-70
2022/08/29 20:54:09;;;;;;;10.88;3.75;;;;;;;;;;5047236;27;88713;-70
2022/08/29 20:56:36;;;;;;;11.50;3.85;;;;;;;;;;5017440;27;88454;-70
2022/08/29 20:59:03;;;;;;;9.88;3.70;;;;;;;;;;5013744;27;88209;-70
2022/08/29 21:01:29;;;;;;;10.50;3.63;;;;;;;;;;5027009;27;89497;-70
2022/08/29 21:06:46;;;;;;;10.23;3.78;;;;;;;;;;5033600;27;89134;-70
2022/08/29 21:09:12;;;;;;;11.20;3.80;;;;;;;;;;5024109;27;88787;-70
2022/08/29 21:11:39;;;;;;;8.68;3.75;;;;;;;;;;5025283;27;88587;-70
2022/08/29 21:14:05;;;;;;;15.80;4.20;;;;;;;;;;5030280;27;88640;-70
2022/08/29 21:16:31;;;;;;;7.03;3.78;;;;;;;;;;5033679;27;88515;-71
2022/08/29 21:18:58;;;;;;;10.40;3.95;;;;;;;;;;5028051;27;88796;-71
2022/08/29 21:21:25;;;;;;;11.07;3.67;;;;;;;;;;5034438;27;88797;-70
2022/08/29 21:23:52;;;;;;;9.18;4.15;;;;;;;;;;5032494;27;88220;-70
2022/08/29 21:26:18;;;;;;;11.07;4.47;;;;;;;;;;5029740;27;89033;-70
2022/08/29 21:28:45;;;;;;;7.93;3.58;;;;;;;;;;5017933;27;87802;-70
2022/08/29 21:31:12;;;;;;;10.55;3.75;;;;;;;;;;5017891;27;88361;-71
2022/08/29 21:33:40;;;;;;;10.63;3.95;;;;;;;;;;5019002;27;89291;-71
2022/08/29 21:36:11;;;;;;;12.23;4.18;;;;;;;;;;5020592;27;88220;-71
2022/08/29 21:38:37;;;;;;;9.85;4.15;;;;;;;;;;5019876;27;88487;-71
2022/08/29 21:41:06;;;;;;;10.32;3.90;;;;;;;;;;5018068;27;88871;-70
2022/08/29 21:43:33;;;;;;;9.05;3.80;;;;;;;;;;5023678;27;89004;-71
2022/08/29 21:46:00;;;;;;;9.38;3.85;;;;;;;;;;5019096;27;88416;-71
2022/08/29 21:48:26;;;;;;;10.40;3.88;;;;;;;;;;5021703;27;89300;-71
2022/08/29 21:50:54;;;;;;;12.05;4.03;;;;;;;;;;5019081;27;88907;-71
2022/08/29 21:53:21;;;;;;;11.75;4.28;;;;;;;;;;5020031;27;89178;-71
2022/08/29 21:55:47;;;;;;;12.02;3.92;;;;;;;;;;5020633;27;88959;-71
2022/08/29 21:58:14;;;;;;;8.15;3.90;;;;;;;;;;5020200;27;88836;-71
2022/08/29 22:00:40;;;;;;;10.82;3.90;;;;;;;;;;5022487;27;89208;-71
2022/08/29 22:03:10;;;;;;;7.53;3.63;;;;;;;;;;5019071;27;87501;-70
2022/08/29 22:05:37;;;;;;;9.55;4.05;;;;;;;;;;5018910;27;89471;-71
2022/08/29 22:08:09;;;;;;;9.63;3.75;;;;;;;;;;5021629;27;89085;-71
2022/08/29 22:10:39;;;;;;;9.88;3.75;;;;;;;;;;5025884;27;89537;-71
2022/08/29 22:13:05;;;;;;;11.38;3.60;;;;;;;;;;5013999;27;88863;-71
2022/08/29 22:18:17;;;;;;;9.10;3.67;;;;;;;;;;5023357;27;88728;-71
2022/08/29 22:20:46;;;;;;;9.80;3.60;;;;;;;;;;5019179;27;88934;-71
2022/08/29 22:23:15;;;;;;;9.88;3.78;;;;;;;;;;5017248;27;88996;-70
2022/08/29 22:25:45;;;;;;;9.82;3.83;;;;;;;;;;5024439;27;88685;-71
2022/08/29 22:28:12;;;;;;;9.00;3.45;;;;;;;;;;5014814;27;88937;-71
2022/08/29 22:30:38;;;;;;;7.97;3.72;;;;;;;;;;5022389;27;88206;-71
2022/08/29 22:33:05;;;;;;;7.65;3.20;;;;;;;;;;5018887;27;89959;-71
2022/08/29 22:35:31;;;;;;;8.88;3.42;;;;;;;;;;5019068;27;90468;-71
2022/08/29 22:37:58;;;;;;;8.80;3.47;;;;;;;;;;5017100;27;88578;-71
2022/08/29 22:40:24;;;;;;;8.68;3.60;;;;;;;;;;5016031;27;88953;-71
2022/08/29 22:42:51;;;;;;;10.02;3.83;;;;;;;;;;5016640;27;88249;-72
2022/08/29 22:45:17;;;;;;;7.55;3.63;;;;;;;;;;5020834;27;88076;-72
2022/08/29 22:47:45;;;;;;;10.07;3.25;;;;;;;;;;5020363;27;88754;-71
2022/08/29 22:50:13;;;;;;;9.18;3.40;;;;;;;;;;5018850;27;88486;-71
2022/08/29 22:52:40;;;;;;;9.20;3.55;;;;;;;;;;5021165;27;88566;-71
2022/08/29 22:55:07;;;;;;;8.13;3.33;;;;;;;;;;5017480;27;88668;-70
2022/08/29 22:57:33;;;;;;;9.85;3.83;;;;;;;;;;5018321;27;89113;-71
2022/08/29 23:00:02;;;;;;;9.10;3.88;;;;;;;;;;5021046;27;88833;-71
2022/08/29 23:02:28;;;;;;;8.10;3.83;;;;;;;;;;5022120;27;88178;-71
2022/08/29 23:04:54;;;;;;;9.43;3.90;;;;;;;;;;5020999;27;88933;-71
2022/08/29 23:07:21;;;;;;;10.65;3.85;;;;;;;;;;5019327;27;89274;-71
2022/08/29 23:09:47;;;;;;;8.60;3.88;;;;;;;;;;5017085;27;88755;-70
2022/08/29 23:12:13;;;;;;;8.95;4.43;;;;;;;;;;5016936;27;88915;-70
2022/08/29 23:14:41;;;;;;;8.10;4.10;;;;;;;;;;5021736;27;88443;-71
2022/08/29 23:17:08;;;;;;;7.57;3.72;;;;;;;;;;5019013;27;88436;-71
2022/08/29 23:19:35;;;;;;;7.80;3.67;;;;;;;;;;5021505;27;88610;-71
2022/08/29 23:22:01;;;;;;;8.57;4.13;;;;;;;;;;5019042;27;89359;-70
2022/08/29 23:24:28;;;;;;;11.93;4.28;;;;;;;;;;5018692;27;88575;-70
2022/08/29 23:26:54;;;;;;;8.52;4.50;;;;;;;;;;5018610;27;88863;-70
2022/08/29 23:29:20;;;;;;;9.25;4.40;;;;;;;;;;5021035;27;89150;-70
2022/08/29 23:31:47;;;;;;;15.20;4.40;;;;;;;;;;5017851;27;88208;-70
2022/08/29 23:34:13;;;;;;;9.05;3.90;;;;;;;;;;5019608;27;88795;-70
2022/08/29 23:36:40;;;;;;;10.45;4.25;;;;;;;;;;5022132;27;88131;-70
2022/08/29 23:39:06;;;;;;;10.75;4.70;;;;;;;;;;5015175;27;89005;-70
2022/08/29 23:41:33;;;;;;;9.75;4.32;;;;;;;;;;5016534;27;88913;-70
2022/08/29 23:44:00;;;;;;;9.82;4.70;;;;;;;;;;5017011;27;90209;-70
2022/08/29 23:46:26;;;;;;;9.73;4.43;;;;;;;;;;5019146;27;89447;-69
2022/08/29 23:48:53;;;;;;;9.45;4.53;;;;;;;;;;5016284;27;89205;-70
2022/08/29 23:51:20;;;;;;;11.93;4.68;;;;;;;;;;5016510;27;90087;-70
2022/08/29 23:53:46;;;;;;;12.00;4.40;;;;;;;;;;5016141;27;90889;-69
2022/08/29 23:56:14;;;;;;;9.27;4.35;;;;;;;;;;5019197;27;90598;-70
2022/08/29 23:58:41;;;;;;;10.57;4.85;;;;;;;;;;5016607;27;89147;-72
